Time;durP1;ratioP1;P1;durP2;ratioP2;P2;SDS_P1;SDS_P2;PMS_P1;PMS_P2;Temp;Humidity;BMP_temperature;BMP_pressure;BME280_temperature;BME280_humidity;BME280_pressure;Samples;Min_cycle;Max_cycle;Signal;HPM_P1;HPM_P2
2022/11/17 00:01:37;;;;;;;6.05;2.63;;;;;;;9.97;100.00;98674.78;4996383;28;20041;-67
2022/11/17 00:04:02;;;;;;;12.70;3.15;;;;;;;9.97;100.00;98661.63;5008561;28;20049;-63
2022/11/17 00:06:28;;;;;;;9.27;3.13;;;;;;;9.98;100.00;98647.50;5007399;28;20034;-67
2022/11/17 00:08:53;;;;;;;13.43;2.80;;;;;;;10.00;100.00;98637.75;5008860;28;20033;-67
2022/11/17 00:11:18;;;;;;;10.27;3.50;;;;;;;10.06;100.00;98636.47;5008498;28;20053;-67
2022/11/17 00:16:28;;;;;;;11.73;2.90;;;;;;;10.10;100.00;98609.84;5009032;28;20080;-66
2022/11/17 00:21:37;;;;;;;8.68;2.72;;;;;;;10.00;100.00;98603.53;5008555;28;20028;-66
2022/11/17 00:24:03;;;;;;;7.75;3.00;;;;;;;10.22;100.00;98570.47;5008600;28;20097;-64
2022/11/17 00:26:30;;;;;;;9.52;4.00;;;;;;;10.09;100.00;98563.41;5008294;28;20441;-65
2022/11/17 00:28:57;;;;;;;6.85;2.53;;;;;;;10.19;100.00;98557.53;5008166;28;20053;-67
2022/11/17 00:34:16;;;;;;;7.57;3.10;;;;;;;10.17;100.00;98543.66;5007836;28;20100;-66
2022/11/17 00:36:44;;;;;;;12.25;3.92;;;;;;;10.10;100.00;98533.56;5008388;28;20469;-68
2022/11/17 00:39:11;;;;;;;9.05;3.78;;;;;;;10.04;100.00;98556.78;5007804;28;20080;-65
2022/11/17 00:41:36;;;;;;;6.57;3.80;;;;;;;10.22;100.00;98555.53;5008195;28;20056;-64
2022/11/17 00:44:01;;;;;;;9.68;3.80;;;;;;;10.19;100.00;98555.75;5008117;28;20109;-65
2022/11/17 00:46:27;;;;;;;10.07;3.78;;;;;;;10.24;100.00;98545.72;4993627;28;20034;-67
2022/11/17 00:48:52;;;;;;;7.65;3.95;;;;;;;10.18;100.00;98527.72;4987993;28;20048;-65
2022/11/17 00:51:18;;;;;;;7.78;4.20;;;;;;;10.30;100.00;98531.28;4986767;28;20030;-65
2022/11/17 00:53:44;;;;;;;8.35;4.45;;;;;;;10.35;100.00;98523.09;4988616;28;20026;-68
2022/11/17 00:56:09;;;;;;;8.93;4.53;;;;;;;10.31;100.00;98525.09;4988683;28;20026;-67
2022/11/17 00:58:35;;;;;;;6.72;3.60;;;;;;;10.32;100.00;98520.66;4988908;28;20382;-67
2022/11/17 01:01:00;;;;;;;9.05;4.25;;;;;;;10.30;100.00;98519.94;4988128;28;20030;-68
2022/11/17 01:03:26;;;;;;;7.78;3.72;;;;;;;10.31;100.00;98511.09;4988451;28;20116;-71
2022/11/17 01:05:51;;;;;;;5.75;3.90;;;;;;;10.34;100.00;98514.38;4988120;28;20022;-65
2022/11/17 01:08:16;;;;;;;8.55;4.20;;;;;;;10.39;100.00;98490.34;4988189;28;20026;-67
2022/11/17 01:10:42;;;;;;;8.50;4.63;;;;;;;10.36;100.00;98509.81;4987603;28;20077;-61
2022/11/17 01:13:07;;;;;;;6.85;4.40;;;;;;;10.32;100.00;98508.34;4986478;28;20034;-65
2022/11/17 01:15:33;;;;;;;9.20;4.72;;;;;;;10.30;100.00;98514.69;4986563;28;20026;-69
2022/11/17 01:17:58;;;;;;;9.00;4.72;;;;;;;10.42;100.00;98518.25;4987886;28;20054;-68
2022/11/17 01:20:24;;;;;;;12.38;4.93;;;;;;;10.49;100.00;98501.09;4988182;28;20079;-66
2022/11/17 01:22:49;;;;;;;9.43;5.68;;;;;;;10.40;100.00;98512.22;4987202;28;20110;-64
2022/11/17 01:25:14;;;;;;;7.03;4.68;;;;;;;10.43;100.00;98509.38;4987952;28;20032;-63
2022/11/17 01:27:40;;;;;;;8.13;5.05;;;;;;;10.43;100.00;98501.50;4988481;28;20061;-67
2022/11/17 01:30:06;;;;;;;11.35;5.40;;;;;;;10.47;100.00;98500.34;4988338;28;20041;-66
2022/11/17 01:32:31;;;;;;;5.65;4.18;;;;;;;10.44;100.00;98496.13;4987457;28;20095;-66
2022/11/17 01:34:56;;;;;;;9.02;4.93;;;;;;;10.43;100.00;98501.50;4986964;28;20361;-65
2022/11/17 01:37:22;;;;;;;10.50;4.50;;;;;;;10.48;100.00;98504.69;4988628;28;20081;-69
2022/11/17 01:39:48;;;;;;;8.35;4.15;;;;;;;10.53;100.00;98505.19;4987832;28;20026;-64
2022/11/17 01:42:16;;;;;;;8.05;3.83;;;;;;;10.60;100.00;98509.06;4988258;28;20497;-66
2022/11/17 01:44:54;;;;;;;6.65;3.50;;;;;;;10.59;100.00;98504.75;4992192;28;20033;-64
2022/11/17 01:47:28;;;;;;;4.53;2.78;;;;;;;10.69;100.00;98496.19;4994263;28;20038;-67
2022/11/17 01:49:58;;;;;;;5.75;3.00;;;;;;;10.57;100.00;98490.00;4992582;28;20042;-70
2022/11/17 01:52:24;;;;;;;4.53;3.08;;;;;;;10.61;100.00;98489.69;4992193;28;20410;-72
2022/11/17 01:54:51;;;;;;;3.28;2.80;;;;;;;10.78;100.00;98486.78;4990841;28;20106;-66
2022/11/17 01:57:21;;;;;;;5.35;2.72;;;;;;;10.80;100.00;98477.81;4993015;28;20033;-66
2022/11/17 02:00:07;;;;;;;5.05;2.70;;;;;;;10.81;100.00;98474.22;5005651;28;20026;-70
2022/11/17 02:02:33;;;;;;;2.63;2.22;;;;;;;10.80;100.00;98469.03;5071067;22;20077;-66
2022/11/17 02:05:20;;;;;;;4.28;2.30;;;;;;;10.91;100.00;98465.63;4990192;28;20483;-66
2022/11/17 02:07:48;;;;;;;4.35;2.70;;;;;;;10.84;100.00;98458.19;4992533;28;20022;-69
2022/11/17 02:10:14;;;;;;;4.35;2.28;;;;;;;10.92;100.00;98456.78;4990924;28;20137;-70
2022/11/17 02:12:40;;;;;;;4.72;2.30;;;;;;;10.96;100.00;98456.44;4992661;28;20113;-65
2022/11/17 02:15:06;;;;;;;5.05;2.45;;;;;;;10.82;100.00;98453.97;4991185;28;20033;-71
2022/11/17 02:17:36;;;;;;;4.07;2.45;;;;;;;10.82;100.00;98441.66;4991974;28;20504;-70
2022/11/17 02:20:07;;;;;;;3.97;2.30;;;;;;;10.74;100.00;98449.28;4989938;28;20068;-68
2022/11/17 02:22:41;;;;;;;6.50;2.30;;;;;;;10.73;100.00;98447.59;4991253;28;20034;-69
2022/11/17 02:25:17;;;;;;;5.68;2.35;;;;;;;10.90;100.00;98450.78;4991947;28;20112;-66
2022/11/17 02:27:53;;;;;;;3.13;2.13;;;;;;;10.87;100.00;98442.16;4990965;28;20033;-66
2022/11/17 02:30:20;;;;;;;4.60;2.33;;;;;;;10.76;100.00;98443.88;4992204;28;20037;-67
2022/11/17 02:33:01;;;;;;;3.53;2.40;;;;;;;10.81;100.00;98442.59;4990793;28;20018;-67
2022/11/17 02:35:35;;;;;;;5.55;2.50;;;;;;;10.80;100.00;98443.56;4991192;28;20034;-70
2022/11/17 02:38:11;;;;;;;6.75;2.58;;;;;;;10.82;100.00;98439.03;4992889;28;20030;-68
2022/11/17 02:40:41;;;;;;;5.63;2.40;;;;;;;10.79;100.00;98433.13;4971781;28;20033;-67
2022/11/17 02:46:07;;;;;;;4.15;2.05;;;;;;;10.90;100.00;98421.81;4971646;28;20089;-66
2022/11/17 02:48:38;;;;;;;6.03;2.20;;;;;;;10.92;100.00;98425.16;4971303;28;20080;-68
2022/11/17 02:51:04;;;;;;;6.30;2.10;;;;;;;10.90;100.00;98421.81;4971872;28;20023;-69
2022/11/17 02:53:29;;;;;;;10.18;2.05;;;;;;;10.88;100.00;98416.66;4955709;28;20037;-68
2022/11/17 02:55:58;;;;;;;6.78;1.70;;;;;;;11.02;100.00;98407.72;4971314;28;20019;-67
2022/11/17 02:58:23;;;;;;;4.10;1.63;;;;;;;11.02;100.00;98418.28;4992274;28;20041;-70
2022/11/17 03:01:16;;;;;;;9.40;2.60;;;;;;;11.00;100.00;98399.09;5012018;28;20026;-69
2022/11/17 03:03:41;;;;;;;2.88;1.67;;;;;;;11.01;100.00;98400.75;5010802;28;20689;-70
2022/11/17 03:06:21;;;;;;;5.97;2.13;;;;;;;11.06;100.00;98408.31;5011103;28;20084;-67
2022/11/17 03:08:59;;;;;;;3.13;1.73;;;;;;;11.05;100.00;98406.66;5009205;28;20049;-64
2022/11/17 03:11:37;;;;;;;5.97;1.60;;;;;;;11.17;100.00;98394.34;5009745;28;20029;-66
2022/11/17 03:14:08;;;;;;;3.60;1.75;;;;;;;11.12;100.00;98398.19;5009942;28;20330;-67
2022/11/17 03:16:36;;;;;;;1.30;1.10;;;;;;;11.09;100.00;98372.06;5011200;28;20037;-68
2022/11/17 03:19:10;;;;;;;8.60;1.67;;;;;;;11.21;100.00;98385.25;4993851;28;20042;-68
2022/11/17 03:22:08;;;;;;;4.43;1.48;;;;;;;11.25;100.00;98373.50;4992740;28;20049;-68
2022/11/17 03:24:37;;;;;;;4.97;1.63;;;;;;;11.23;100.00;98372.81;4990066;28;20109;-68
2022/11/17 03:27:11;;;;;;;4.28;1.60;;;;;;;11.14;100.00;98365.59;4991943;28;20022;-68
2022/11/17 03:29:40;;;;;;;3.55;1.52;;;;;;;11.18;100.00;98367.88;4990772;28;20042;-69
2022/11/17 03:32:06;;;;;;;4.82;1.35;;;;;;;11.11;100.00;98353.50;4989205;28;20065;-69
2022/11/17 03:34:35;;;;;;;7.28;1.27;;;;;;;11.17;100.00;98352.19;4989006;28;20026;-70
2022/11/17 03:37:02;;;;;;;3.33;1.23;;;;;;;11.19;100.00;98350.25;4988998;28;20783;-70
2022/11/17 03:39:33;;;;;;;5.55;1.60;;;;;;;11.09;100.00;98344.84;5003419;28;20436;-69
2022/11/17 03:42:09;;;;;;;3.88;1.27;;;;;;;11.23;100.00;98338.53;5009633;28;20033;-68
2022/11/17 03:44:37;;;;;;;9.20;1.33;;;;;;;11.27;100.00;98326.78;5008551;28;20033;-68
2022/11/17 03:47:03;;;;;;;5.30;1.20;;;;;;;11.29;100.00;98318.75;5008126;28;20472;-67
2022/11/17 03:49:56;;;;;;;5.70;1.42;;;;;;;11.29;100.00;98319.59;5008788;28;20033;-64
2022/11/17 03:52:23;;;;;;;4.82;1.30;;;;;;;11.43;100.00;98315.88;5008772;28;20065;-69
2022/11/17 03:54:49;;;;;;;2.78;1.08;;;;;;;11.38;100.00;98326.78;5009761;28;20022;-67
2022/11/17 03:57:37;;;;;;;3.45;1.70;;;;;;;11.47;100.00;98319.13;5007346;28;20036;-71
2022/11/17 04:00:04;;;;;;;11.05;1.35;;;;;;;11.54;100.00;98317.69;5008282;28;20033;-68
2022/11/17 04:02:29;;;;;;;3.38;1.42;;;;;;;11.62;100.00;98310.00;5008581;28;20050;-64
2022/11/17 04:05:06;;;;;;;4.70;1.27;;;;;;;11.46;100.00;98313.00;5008820;28;20030;-63
2022/11/17 04:07:39;;;;;;;6.40;1.30;;;;;;;11.58;100.00;98307.72;5007912;28;20033;-68
2022/11/17 04:10:05;;;;;;;3.22;1.20;;;;;;;11.58;100.00;98313.84;5008110;28;20025;-70
2022/11/17 04:17:59;;;;;;;6.03;1.27;;;;;;;11.48;100.00;98307.63;5002877;28;20073;-68
2022/11/17 04:20:24;;;;;;;3.80;1.23;;;;;;;11.52;100.00;98298.50;4987874;28;20455;-64
2022/11/17 04:23:05;;;;;;;3.03;1.23;;;;;;;11.27;100.00;98295.16;4988460;28;20077;-68
2022/11/17 04:28:36;;;;;;;4.10;1.10;;;;;;;11.40;100.00;98288.91;4989818;28;20093;-68
2022/11/17 04:31:19;;;;;;;3.53;1.08;;;;;;;11.15;100.00;98278.50;4990009;28;20038;-68
2022/11/17 04:33:46;;;;;;;6.18;1.30;;;;;;;11.19;100.00;98298.38;4988561;28;20030;-65
2022/11/17 04:36:13;;;;;;;5.63;1.30;;;;;;;11.27;100.00;98289.88;4989901;28;20031;-66
2022/11/17 04:38:43;;;;;;;3.45;1.00;;;;;;;11.38;100.00;98289.06;4988944;28;20385;-69
2022/11/17 04:43:53;;;;;;;4.57;1.08;;;;;;;11.30;100.00;98278.25;4988205;28;20559;-65
2022/11/17 04:46:20;;;;;;;5.53;2.10;;;;;;;11.14;100.00;98278.63;4989273;28;20034;-69
2022/11/17 04:48:46;;;;;;;5.93;1.13;;;;;;;11.17;100.00;98273.09;4989703;28;20041;-67
2022/11/17 04:51:12;;;;;;;3.75;1.00;;;;;;;11.17;100.00;98273.94;4990103;28;20683;-67
2022/11/17 04:53:37;;;;;;;4.57;1.25;;;;;;;11.22;100.00;98265.66;4989866;28;20062;-67
2022/11/17 04:56:03;;;;;;;3.22;1.02;;;;;;;11.08;100.00;98262.31;4989598;28;20026;-66
2022/11/17 04:58:29;;;;;;;4.35;1.20;;;;;;;11.02;100.00;98268.06;4989633;28;20077;-66
2022/11/17 05:00:54;;;;;;;4.45;0.98;;;;;;;10.96;100.00;98271.19;4988199;28;20030;-65
2022/11/17 05:03:20;;;;;;;4.75;1.20;;;;;;;11.19;100.00;98263.25;5004043;28;20559;-67
2022/11/17 05:05:46;;;;;;;5.85;1.45;;;;;;;11.13;100.00;98261.94;5008076;28;20014;-69
2022/11/17 05:08:12;;;;;;;3.50;1.00;;;;;;;11.00;100.00;98269.97;5002477;28;20543;-68
2022/11/17 05:13:23;;;;;;;2.88;1.05;;;;;;;10.89;100.00;98281.34;4993987;28;20116;-67
2022/11/17 05:18:36;;;;;;;4.43;1.23;;;;;;;11.15;100.00;98270.59;4987314;28;20041;-67
2022/11/17 05:21:03;;;;;;;2.35;0.90;;;;;;;11.23;100.00;98281.34;4989114;28;20026;-70
2022/11/17 05:26:12;;;;;;;5.38;1.42;;;;;;;11.03;100.00;98282.91;4995713;28;20033;-68
2022/11/17 05:28:38;;;;;;;2.38;1.00;;;;;;;11.11;100.00;98293.69;4990393;28;20049;-65
2022/11/17 05:31:03;;;;;;;3.42;0.90;;;;;;;11.15;100.00;98288.19;4988842;28;20022;-67
2022/11/17 05:33:28;;;;;;;2.72;0.82;;;;;;;11.22;100.00;98286.75;4986698;28;20355;-66
2022/11/17 05:35:54;;;;;;;3.30;1.08;;;;;;;11.25;100.00;98278.59;4989497;28;20066;-67
2022/11/17 05:38:19;;;;;;;6.70;0.93;;;;;;;11.14;100.00;98274.19;4978053;28;20100;-66
2022/11/17 05:40:44;;;;;;;2.15;0.98;;;;;;;11.17;100.00;98276.56;4969016;28;20137;-66
2022/11/17 05:43:10;;;;;;;2.67;1.35;;;;;;;11.16;100.00;98290.72;4987208;28;20455;-66
2022/11/17 05:45:35;;;;;;;3.75;1.40;;;;;;;11.34;100.00;98275.25;4988756;28;20539;-65
2022/11/17 05:48:00;;;;;;;5.47;1.23;;;;;;;11.33;100.00;98276.22;4999897;28;20492;-65
2022/11/17 05:50:26;;;;;;;1.00;0.93;;;;;;;11.26;100.00;98277.66;5008490;28;20565;-64
2022/11/17 05:52:51;;;;;;;5.03;1.30;;;;;;;11.24;100.00;98282.22;5007979;28;20045;-66
2022/11/17 05:55:16;;;;;;;3.50;1.00;;;;;;;11.25;100.00;98278.59;5008397;28;20029;-65
2022/11/17 05:57:42;;;;;;;4.55;1.08;;;;;;;11.20;100.00;98278.16;5008233;28;20034;-67
2022/11/17 06:00:08;;;;;;;3.40;1.10;;;;;;;11.21;100.00;98271.91;5006745;28;20128;-65
2022/11/17 06:02:40;;;;;;;2.33;1.10;;;;;;;11.26;100.00;98272.41;4988067;28;20053;-68
2022/11/17 06:05:07;;;;;;;3.88;1.30;;;;;;;11.23;100.00;98265.53;4985846;28;20041;-66
2022/11/17 06:07:33;;;;;;;3.00;1.50;;;;;;;11.28;100.00;98275.72;4995740;28;20176;-66
2022/11/17 06:09:59;;;;;;;4.32;1.35;;;;;;;11.28;100.00;98264.34;5007836;28;20061;-66
2022/11/17 06:12:24;;;;;;;3.78;1.55;;;;;;;11.34;100.00;98274.41;5007363;28;20076;-64
2022/11/17 06:14:50;;;;;;;8.52;1.80;;;;;;;11.33;100.00;98276.22;5008036;28;20102;-65
2022/11/17 06:17:22;;;;;;;5.03;1.52;;;;;;;11.23;100.00;98273.44;5008052;28;20117;-67
2022/11/17 06:19:52;;;;;;;8.75;1.50;;;;;;;11.22;100.00;98271.78;5005716;28;20025;-64
2022/11/17 06:22:18;;;;;;;8.00;2.00;;;;;;;11.32;100.00;98290.34;5006318;28;20115;-67
2022/11/17 06:24:44;;;;;;;9.13;1.75;;;;;;;11.35;100.00;98276.94;5006777;28;20637;-68
2022/11/17 06:27:11;;;;;;;8.27;1.85;;;;;;;11.28;100.00;98286.28;4991522;28;20358;-67
2022/11/17 06:29:36;;;;;;;7.38;1.75;;;;;;;11.29;100.00;98280.03;4988327;28;20057;-67
2022/11/17 06:32:01;;;;;;;7.00;1.75;;;;;;;11.24;100.00;98284.84;5004217;28;20480;-69
2022/11/17 06:34:27;;;;;;;6.35;1.83;;;;;;;11.29;100.00;98282.69;5010236;28;20025;-70
2022/11/17 06:36:52;;;;;;;9.27;2.10;;;;;;;11.25;100.00;98283.88;5010981;28;20428;-69
2022/11/17 06:39:18;;;;;;;10.27;2.10;;;;;;;11.09;100.00;98292.13;5010340;28;20128;-68
2022/11/17 06:41:43;;;;;;;6.25;1.90;;;;;;;11.15;100.00;98293.47;5010984;28;20725;-69
2022/11/17 06:44:08;;;;;;;6.30;1.70;;;;;;;11.22;100.00;98292.03;5010119;28;20503;-64
2022/11/17 06:46:36;;;;;;;5.70;1.73;;;;;;;11.10;100.00;98294.66;5009735;28;20134;-64
2022/11/17 06:49:06;;;;;;;9.25;2.03;;;;;;;11.19;100.00;98287.00;4989734;28;20507;-65
2022/11/17 06:51:32;;;;;;;11.32;2.45;;;;;;;11.10;100.00;98297.28;4989502;28;20030;-68
2022/11/17 06:53:57;;;;;;;5.45;1.67;;;;;;;11.19;100.00;98295.75;4989914;28;20033;-67
2022/11/17 06:56:22;;;;;;;5.57;1.60;;;;;;;11.21;100.00;98298.25;4991427;28;20413;-68
2022/11/17 06:58:48;;;;;;;4.90;1.58;;;;;;;11.10;100.00;98285.91;4991197;28;20106;-69
2022/11/17 07:01:14;;;;;;;4.80;1.38;;;;;;;11.02;100.00;98297.06;4989453;28;20160;-68
2022/11/17 07:03:40;;;;;;;5.80;1.45;;;;;;;11.20;100.00;98301.88;4974597;28;20027;-68
2022/11/17 07:06:07;;;;;;;4.57;1.30;;;;;;;11.17;100.00;98300.28;4990757;28;20177;-68
2022/11/17 07:08:33;;;;;;;5.28;1.45;;;;;;;11.19;100.00;98305.44;4989279;28;20120;-69
2022/11/17 07:11:11;;;;;;;4.95;1.10;;;;;;;11.15;100.00;98314.53;4989495;28;20027;-66
2022/11/17 07:13:36;;;;;;;4.57;1.30;;;;;;;11.09;100.00;98308.81;4973157;28;20106;-66
2022/11/17 07:16:13;;;;;;;5.63;1.25;;;;;;;11.14;100.00;98312.88;4983035;28;20026;-65
2022/11/17 07:18:42;;;;;;;5.80;1.67;;;;;;;11.10;100.00;98305.19;4984874;28;20026;-65
2022/11/17 07:21:10;;;;;;;5.35;1.30;;;;;;;11.14;100.00;98311.09;4974187;28;20104;-66
2022/11/17 07:23:37;;;;;;;4.15;1.33;;;;;;;11.04;100.00;98308.31;4988075;28;20243;-66
2022/11/17 07:26:03;;;;;;;5.00;1.52;;;;;;;11.06;100.00;98318.72;4988486;28;20030;-66
2022/11/17 07:28:28;;;;;;;3.65;1.55;;;;;;;11.00;100.00;98320.03;4986662;28;20161;-66
2022/11/17 07:30:54;;;;;;;2.40;1.63;;;;;;;10.95;100.00;98325.66;4987693;28;20105;-63
2022/11/17 07:33:20;;;;;;;5.60;1.30;;;;;;;10.99;100.00;98326.28;4986966;28;20014;-66
2022/11/17 07:35:46;;;;;;;3.83;1.65;;;;;;;10.89;100.00;98331.38;4988454;28;20604;-68
2022/11/17 07:38:11;;;;;;;5.82;1.50;;;;;;;10.87;100.00;98346.50;4988835;28;20022;-65
2022/11/17 07:40:36;;;;;;;3.28;1.38;;;;;;;10.93;100.00;98345.19;4988050;28;20072;-70
2022/11/17 07:43:02;;;;;;;4.22;1.40;;;;;;;10.92;100.00;98338.22;4988504;28;20464;-67
2022/11/17 07:45:27;;;;;;;1.30;1.08;;;;;;;10.93;100.00;98337.28;4987851;28;20511;-69
2022/11/17 07:47:58;;;;;;;2.10;1.23;;;;;;;10.96;100.00;98345.78;4977527;28;20022;-65
2022/11/17 07:50:24;;;;;;;3.10;1.17;;;;;;;10.86;100.00;98344.78;4986088;28;20658;-67
2022/11/17 07:52:50;;;;;;;3.42;1.45;;;;;;;10.91;100.00;98342.66;4989061;28;20019;-68
2022/11/17 07:55:16;;;;;;;4.63;1.50;;;;;;;10.99;100.00;98339.44;4987483;28;20113;-68
2022/11/17 07:57:42;;;;;;;4.38;1.60;;;;;;;10.95;100.00;98348.53;4988797;28;20108;-63
2022/11/17 08:00:08;;;;;;;3.47;1.38;;;;;;;10.95;100.00;98345.88;4988605;28;20046;-66
2022/11/17 08:02:33;;;;;;;4.55;1.30;;;;;;;10.92;100.00;98341.69;4987574;28;20468;-63
2022/11/17 08:04:58;;;;;;;4.93;1.23;;;;;;;10.91;100.00;98352.34;4988588;28;20026;-65
2022/11/17 08:07:24;;;;;;;5.57;1.40;;;;;;;11.03;100.00;98346.16;4989172;28;20037;-67
2022/11/17 08:09:50;;;;;;;2.08;1.30;;;;;;;11.02;100.00;98355.03;4989576;28;20066;-67
2022/11/17 08:12:15;;;;;;;3.33;1.50;;;;;;;11.10;100.00;98360.53;4988487;28;20112;-68
2022/11/17 08:14:41;;;;;;;7.30;1.50;;;;;;;11.16;100.00;98355.75;4989137;28;20030;-66
2022/11/17 08:17:06;;;;;;;4.40;1.52;;;;;;;11.17;100.00;98362.72;4988871;28;20026;-66
2022/11/17 08:19:31;;;;;;;4.22;1.40;;;;;;;11.05;100.00;98367.13;4986588;28;20030;-67
2022/11/17 08:21:57;;;;;;;7.97;1.60;;;;;;;11.02;100.00;98362.94;4968855;28;20030;-64
2022/11/17 08:24:22;;;;;;;5.75;1.27;;;;;;;11.15;100.00;98369.88;4969426;28;20601;-65
2022/11/17 08:26:47;;;;;;;4.88;1.70;;;;;;;11.04;100.00;98373.34;4975042;28;20444;-66
2022/11/17 08:29:13;;;;;;;2.85;1.25;;;;;;;11.04;100.00;98370.69;4992696;28;20108;-69
2022/11/17 08:31:40;;;;;;;5.85;1.30;;;;;;;11.06;100.00;98364.38;4988662;28;20023;-67
2022/11/17 08:34:05;;;;;;;7.80;1.48;;;;;;;11.15;100.00;98364.63;4987412;28;20034;-67
2022/11/17 08:36:31;;;;;;;6.43;1.20;;;;;;;11.03;100.00;98372.50;4988547;28;20033;-67
2022/11/17 08:38:56;;;;;;;3.95;1.40;;;;;;;11.04;100.00;98379.44;4985338;28;20057;-63
2022/11/17 08:41:22;;;;;;;7.30;1.17;;;;;;;11.04;100.00;98376.81;4976675;28;20022;-66
2022/11/17 08:43:49;;;;;;;4.72;1.50;;;;;;;11.10;100.00;98392.16;4976380;28;20022;-67
2022/11/17 08:46:14;;;;;;;7.80;1.55;;;;;;;11.14;100.00;98394.56;4978603;28;20421;-67
2022/11/17 08:48:39;;;;;;;5.32;1.40;;;;;;;11.14;100.00;98378.75;4977007;28;20018;-68
2022/11/17 08:51:06;;;;;;;2.50;1.00;;;;;;;11.12;100.00;98398.19;4985381;28;20113;-67
2022/11/17 08:53:32;;;;;;;4.43;1.10;;;;;;;11.21;100.00;98401.06;4988164;28;20029;-69
2022/11/17 08:55:58;;;;;;;4.55;1.30;;;;;;;11.28;100.00;98386.44;4987859;28;20030;-64
2022/11/17 08:58:23;;;;;;;6.22;1.30;;;;;;;11.34;100.00;98396.53;4988248;28;20077;-66
2022/11/17 09:00:48;;;;;;;6.90;0.90;;;;;;;11.34;100.00;98398.31;4989521;28;20046;-68
2022/11/17 09:03:14;;;;;;;7.55;1.38;;;;;;;11.42;100.00;98403.00;5006309;28;20049;-66
2022/11/17 09:05:41;;;;;;;4.47;1.08;;;;;;;11.46;100.00;98407.94;5007306;28;20428;-65
2022/11/17 09:08:07;;;;;;;5.07;1.33;;;;;;;11.55;100.00;98422.22;5001574;28;20131;-66
2022/11/17 09:10:35;;;;;;;4.05;1.05;;;;;;;11.57;100.00;98408.91;4988339;28;20838;-68
2022/11/17 09:13:01;;;;;;;4.70;1.00;;;;;;;11.68;100.00;98408.09;4987172;28;20448;-66
2022/11/17 09:15:26;;;;;;;4.90;1.20;;;;;;;11.85;100.00;98417.31;4986724;28;20473;-63
2022/11/17 09:17:51;;;;;;;5.82;1.20;;;;;;;11.74;100.00;98423.44;4987269;28;20062;-68
2022/11/17 09:20:17;;;;;;;4.35;1.00;;;;;;;11.83;100.00;98440.34;4988281;28;20019;-64
2022/11/17 09:22:43;;;;;;;3.33;1.10;;;;;;;11.69;100.00;98426.44;4988010;28;20485;-67
2022/11/17 09:25:08;;;;;;;3.03;1.10;;;;;;;11.65;100.00;98421.50;4987786;28;20488;-66
2022/11/17 09:27:34;;;;;;;3.42;0.73;;;;;;;11.38;100.00;98421.69;4987574;28;20037;-68
2022/11/17 09:29:59;;;;;;;2.20;0.90;;;;;;;11.30;100.00;98437.28;4987375;28;20027;-68
2022/11/17 09:32:25;;;;;;;4.68;1.48;;;;;;;11.31;100.00;98412.59;4986842;28;20045;-65
2022/11/17 09:34:51;;;;;;;6.60;1.30;;;;;;;11.35;100.00;98444.84;4988497;28;20556;-65
2022/11/17 09:37:16;;;;;;;6.03;1.38;;;;;;;11.36;100.00;98442.09;4986827;28;20027;-65
2022/11/17 09:39:41;;;;;;;3.35;1.42;;;;;;;11.37;100.00;98445.53;4982823;28;20048;-67
2022/11/17 09:42:14;;;;;;;6.07;1.73;;;;;;;11.24;100.00;98453.56;4976793;28;20030;-66
2022/11/17 09:44:45;;;;;;;3.65;1.05;;;;;;;11.42;100.00;98466.28;4976642;28;20026;-66
2022/11/17 09:47:31;;;;;;;4.30;1.30;;;;;;;11.25;100.00;98458.72;4973671;28;20085;-66
2022/11/17 09:50:12;;;;;;;4.65;1.30;;;;;;;11.36;100.00;98472.88;4985860;28;20106;-68
2022/11/17 09:53:22;;;;;;;6.10;1.40;;;;;;;11.24;100.00;98480.75;4993863;28;20037;-66
2022/11/17 09:55:50;;;;;;;4.53;1.02;;;;;;;11.19;100.00;98479.41;4992582;28;20723;-66
2022/11/17 09:58:29;;;;;;;4.63;1.48;;;;;;;11.31;100.00;98475.00;4975560;28;20031;-67
2022/11/17 10:00:54;;;;;;;;;;;;;;;11.27;100.00;98484.09;4986687;28;20015;-64
2022/11/17 10:03:30;;;;;;;3.50;1.10;;;;;;;11.27;100.00;98492.00;4983520;28;19917;-64
2022/11/17 10:05:57;;;;;;;9.25;1.45;;;;;;;11.17;100.00;98478.69;4989848;28;20089;-65
2022/11/17 10:08:38;;;;;;;6.78;1.23;;;;;;;11.16;100.00;98493.66;4991016;28;20084;-67
2022/11/17 10:11:30;;;;;;;3.40;1.13;;;;;;;11.19;100.00;98496.06;4988949;28;20062;-66
2022/11/17 10:13:54;;;;;;;0.90;0.80;;;;;;;11.18;100.00;98501.44;4997467;28;20177;-64
2022/11/17 10:16:20;;;;;;;5.93;1.30;;;;;;;11.25;100.00;98502.66;4996840;28;20037;-67
2022/11/17 10:18:45;;;;;;;5.63;1.90;;;;;;;11.24;100.00;98508.91;4997289;28;20266;-66
2022/11/17 10:21:10;;;;;;;6.80;1.05;;;;;;;11.32;100.00;98509.16;4990524;28;20037;-64
2022/11/17 10:23:39;;;;;;;8.05;1.60;;;;;;;11.34;100.00;98507.25;5006145;28;20029;-68
2022/11/17 10:26:12;;;;;;;8.33;1.40;;;;;;;11.32;100.00;98513.63;5007667;28;20064;-64
2022/11/17 10:28:38;;;;;;;7.05;1.38;;;;;;;11.36;100.00;98515.91;5008941;28;20396;-65
2022/11/17 10:31:09;;;;;;;7.90;1.30;;;;;;;11.41;100.00;98509.44;5008915;28;20022;-66
2022/11/17 10:33:44;;;;;;;4.18;1.25;;;;;;;11.36;100.00;98518.56;5004447;28;20029;-66
2022/11/17 10:36:19;;;;;;;8.73;1.40;;;;;;;11.34;100.00;98525.72;5007686;28;20030;-65
2022/11/17 10:38:53;;;;;;;7.55;2.00;;;;;;;11.14;100.00;98532.47;4990519;28;20354;-67
2022/11/17 10:41:21;;;;;;;3.78;1.08;;;;;;;11.22;100.00;98534.53;4979024;28;20600;-67
2022/11/17 10:44:02;;;;;;;6.40;1.27;;;;;;;11.31;100.00;98539.13;4980688;28;20536;-66
2022/11/17 10:46:28;;;;;;;6.32;1.58;;;;;;;11.32;100.00;98532.91;4989355;28;20018;-65
2022/11/17 10:49:02;;;;;;;7.80;1.60;;;;;;;11.25;100.00;98535.16;4988881;28;20025;-67
2022/11/17 10:51:32;;;;;;;7.05;1.65;;;;;;;11.44;100.00;98528.50;4988307;28;20423;-69
2022/11/17 10:54:16;;;;;;;8.07;1.67;;;;;;;11.45;100.00;98535.47;4994966;28;20076;-67
2022/11/17 10:57:01;;;;;;;7.22;1.48;;;;;;;11.40;100.00;98527.06;5001650;28;20019;-66
2022/11/17 10:59:29;;;;;;;4.90;1.42;;;;;;;11.22;100.00;98547.72;4983436;28;20030;-66
2022/11/17 11:01:55;;;;;;;9.20;1.42;;;;;;;11.29;100.00;98546.28;4988855;28;20018;-69
2022/11/17 11:04:26;;;;;;;6.80;1.38;;;;;;;11.38;100.00;98548.25;4988183;28;20073;-62
2022/11/17 11:07:13;;;;;;;5.72;1.40;;;;;;;11.43;100.00;98542.66;4980415;28;20069;-67
2022/11/17 11:09:44;;;;;;;9.00;1.52;;;;;;;11.38;100.00;98555.34;4987686;28;20084;-64
2022/11/17 11:12:14;;;;;;;8.80;1.65;;;;;;;11.42;100.00;98559.44;4988042;28;20022;-68
2022/11/17 11:14:43;;;;;;;6.15;1.52;;;;;;;11.31;100.00;98557.59;4989471;28;20057;-68
2022/11/17 11:17:14;;;;;;;7.07;1.10;;;;;;;11.40;100.00;98555.22;4988823;28;20030;-63
2022/11/17 11:19:49;;;;;;;5.03;1.20;;;;;;;11.37;100.00;98570.31;4989241;28;20018;-65
2022/11/17 11:22:26;;;;;;;6.40;1.30;;;;;;;11.49;100.00;98563.28;4986344;28;20037;-68
2022/11/17 11:25:13;;;;;;;3.05;1.10;;;;;;;11.55;100.00;98576.97;4993523;28;20036;-66
2022/11/17 11:28:01;;;;;;;3.25;1.02;;;;;;;11.63;100.00;98578.06;4996198;28;20085;-68
2022/11/17 11:30:26;;;;;;;3.92;1.52;;;;;;;11.49;100.00;98576.47;4987841;28;20105;-64
2022/11/17 11:33:10;;;;;;;7.15;1.80;;;;;;;11.42;100.00;98577.91;4987713;28;20133;-68
2022/11/17 11:36:04;;;;;;;6.95;1.15;;;;;;;11.52;100.00;98574.56;4987507;28;20097;-68
2022/11/17 11:38:39;;;;;;;4.20;1.10;;;;;;;11.43;100.00;98579.56;4972681;28;20493;-66
2022/11/17 11:41:15;;;;;;;8.55;1.45;;;;;;;11.33;100.00;98589.97;4988722;28;20037;-67
2022/11/17 11:43:46;;;;;;;4.00;1.10;;;;;;;11.17;100.00;98589.41;4987695;28;20065;-65
2022/11/17 11:46:40;;;;;;;3.95;1.50;;;;;;;11.10;100.00;98595.09;4990967;28;20027;-66
2022/11/17 11:49:27;;;;;;;4.78;1.25;;;;;;;11.03;100.00;98600.91;4986803;28;20047;-63
2022/11/17 11:51:53;;;;;;;4.63;1.30;;;;;;;11.03;100.00;98599.13;4985591;28;20011;-67
2022/11/17 11:54:37;;;;;;;7.32;1.70;;;;;;;11.03;100.00;98587.75;4986872;28;20036;-67
2022/11/17 11:57:02;;;;;;;4.78;1.40;;;;;;;11.08;100.00;98580.38;4988353;28;20101;-64
2022/11/17 11:59:48;;;;;;;5.38;1.48;;;;;;;11.05;100.00;98578.78;4989147;28;20026;-67
2022/11/17 12:02:26;;;;;;;4.13;1.30;;;;;;;10.95;100.00;98591.78;4976822;28;20958;-66
2022/11/17 12:05:22;;;;;;;12.95;1.88;;;;;;;10.78;100.00;98597.41;4990602;28;20026;-67